createdAt,value
2022-10-19T00:00:12.024Z,11.52
2022-10-19T00:02:38.678Z,11.46
2022-10-19T00:05:05.749Z,11.42
2022-10-19T00:07:36.500Z,11.37
2022-10-19T00:10:09.368Z,11.32
2022-10-19T00:12:36.142Z,11.28
2022-10-19T00:15:04.106Z,11.22
2022-10-19T00:17:30.946Z,11.19
2022-10-19T00:19:57.816Z,11.13
2022-10-19T00:22:24.469Z,11.18
2022-10-19T00:24:51.129Z,11.27
2022-10-19T00:27:17.799Z,11.32
2022-10-19T00:29:44.438Z,11.23
2022-10-19T00:32:11.094Z,11.27
2022-10-19T00:34:37.772Z,11.30
2022-10-19T00:37:05.901Z,11.22
2022-10-19T00:39:54.513Z,11.16
2022-10-19T00:42:21.343Z,11.17
2022-10-19T00:44:47.944Z,11.11
2022-10-19T00:47:24.965Z,11.18
2022-10-19T00:49:52.426Z,11.11
2022-10-19T00:52:21.756Z,11.17
2022-10-19T00:54:55.315Z,11.25
2022-10-19T00:57:23.076Z,11.12
2022-10-19T00:59:49.787Z,11.07
2022-10-19T01:02:16.448Z,11.22
2022-10-19T01:04:47.207Z,11.18
2022-10-19T01:07:14.232Z,11.07
2022-10-19T01:09:40.820Z,11.02
2022-10-19T01:12:14.004Z,11.09
2022-10-19T01:15:11.511Z,10.99
2022-10-19T01:17:56.413Z,11.08
2022-10-19T01:20:58.473Z,10.86
2022-10-19T01:23:37.781Z,10.92
2022-10-19T01:27:14.209Z,10.92
2022-10-19T01:30:08.152Z,10.83
2022-10-19T01:33:02.231Z,10.80
2022-10-19T01:35:41.129Z,10.86
2022-10-19T01:38:21.926Z,10.90
2022-10-19T01:41:26.539Z,11.00
2022-10-19T01:44:13.618Z,10.78
2022-10-19T01:46:41.891Z,10.76
2022-10-19T01:49:34.918Z,10.65
2022-10-19T01:52:07.337Z,10.62
2022-10-19T01:54:42.671Z,10.61
2022-10-19T01:57:11.672Z,10.59
2022-10-19T01:59:39.399Z,10.48
2022-10-19T02:02:07.118Z,10.54
2022-10-19T02:04:34.440Z,10.51
2022-10-19T02:07:02.229Z,10.50
2022-10-19T02:09:31.010Z,10.49
2022-10-19T02:12:04.732Z,10.44
2022-10-19T02:14:39.005Z,10.37
2022-10-19T02:17:08.986Z,10.29
2022-10-19T02:19:35.601Z,10.23
2022-10-19T02:22:02.582Z,10.23
2022-10-19T02:24:29.224Z,10.23
2022-10-19T02:26:56.572Z,10.17
2022-10-19T02:29:23.197Z,10.14
2022-10-19T02:31:49.917Z,10.22
2022-10-19T02:34:16.476Z,10.21
2022-10-19T02:36:43.093Z,10.25
2022-10-19T02:39:09.775Z,10.23
2022-10-19T02:41:45.535Z,10.16
2022-10-19T02:44:20.698Z,10.14
2022-10-19T02:47:05.238Z,10.13
2022-10-19T02:49:34.700Z,10.22
2022-10-19T02:52:06.555Z,10.23
2022-10-19T02:54:33.482Z,10.30
2022-10-19T02:57:00.122Z,10.21
2022-10-19T02:59:26.906Z,10.18
2022-10-19T03:01:53.539Z,10.09
2022-10-19T03:04:20.074Z,10.03
2022-10-19T03:06:46.773Z,10.05
2022-10-19T03:09:13.392Z,10.05
2022-10-19T03:11:39.980Z,9.94
2022-10-19T03:14:06.542Z,10.03
2022-10-19T03:16:36.820Z,10.01
2022-10-19T03:19:03.410Z,10.05
2022-10-19T03:21:33.863Z,10.06
2022-10-19T03:24:01.147Z,10.00
2022-10-19T03:26:33.981Z,9.91
2022-10-19T03:29:01.997Z,9.94
2022-10-19T03:31:28.665Z,10.02
2022-10-19T03:33:55.277Z,9.96
2022-10-19T03:36:24.353Z,10.05
2022-10-19T03:38:55.808Z,10.03
2022-10-19T03:41:23.797Z,10.04
2022-10-19T03:43:52.412Z,10.07
2022-10-19T03:46:19.388Z,10.06
2022-10-19T03:48:46.169Z,10.05
2022-10-19T03:51:42.086Z,10.07
2022-10-19T03:54:13.682Z,10.10
2022-10-19T03:56:41.032Z,10.04
2022-10-19T03:59:16.255Z,10.05
2022-10-19T04:01:45.813Z,10.03
2022-10-19T04:04:16.766Z,9.95
2022-10-19T04:06:46.290Z,9.96
2022-10-19T04:09:15.764Z,9.92
2022-10-19T04:11:46.870Z,9.99
2022-10-19T04:14:22.768Z,9.93
2022-10-19T04:17:01.065Z,9.88
2022-10-19T04:19:31.014Z,9.89
2022-10-19T04:22:00.639Z,9.85
2022-10-19T04:24:28.698Z,9.86
2022-10-19T04:26:58.482Z,9.84
2022-10-19T04:29:29.511Z,9.89
2022-10-19T04:32:13.476Z,9.98
2022-10-19T04:34:40.287Z,9.99
2022-10-19T04:37:06.922Z,9.96
2022-10-19T04:39:33.651Z,9.79
2022-10-19T04:42:00.324Z,9.72
2022-10-19T04:44:33.745Z,9.73
2022-10-19T04:47:00.318Z,9.73
2022-10-19T04:49:30.030Z,9.81
2022-10-19T04:51:56.650Z,9.71
2022-10-19T04:54:25.591Z,9.63
2022-10-19T04:56:53.821Z,9.61
2022-10-19T04:59:22.947Z,9.65
2022-10-19T05:01:49.530Z,9.59
2022-10-19T05:04:24.523Z,9.64
2022-10-19T05:06:51.169Z,9.61
2022-10-19T05:09:20.975Z,9.58
2022-10-19T05:11:51.303Z,9.49
2022-10-19T05:14:17.995Z,9.44
2022-10-19T05:17:10.979Z,9.65
2022-10-19T05:19:39.901Z,9.68
2022-10-19T05:22:06.703Z,9.72
2022-10-19T05:24:33.316Z,9.74
2022-10-19T05:26:59.855Z,9.81
2022-10-19T05:29:26.615Z,9.94
2022-10-19T05:31:53.238Z,9.87
2022-10-19T05:34:19.943Z,9.87
2022-10-19T05:36:46.509Z,9.93
2022-10-19T05:39:15.577Z,10.12
2022-10-19T05:41:46.212Z,10.01
2022-10-19T05:44:21.401Z,10.20
2022-10-19T05:46:51.076Z,9.99
2022-10-19T05:49:19.623Z,9.85
2022-10-19T05:51:46.287Z,9.82
2022-10-19T05:54:13.863Z,9.80
2022-10-19T05:56:41.012Z,9.68
2022-10-19T05:59:08.448Z,9.61
2022-10-19T06:05:25.166Z,9.48
2022-10-19T06:07:51.794Z,9.44
2022-10-19T06:10:19.396Z,9.40
2022-10-19T06:12:46.082Z,9.48
2022-10-19T06:15:12.719Z,9.54
2022-10-19T06:17:39.567Z,9.36
2022-10-19T06:20:06.673Z,9.28
2022-10-19T06:22:33.543Z,9.53
2022-10-19T06:25:00.251Z,9.53
2022-10-19T06:27:26.896Z,9.48
2022-10-19T06:29:53.510Z,9.50
2022-10-19T06:32:20.616Z,9.38
2022-10-19T06:34:47.328Z,9.43
2022-10-19T06:37:13.952Z,9.42
2022-10-19T06:39:40.631Z,9.42
2022-10-19T06:42:07.215Z,9.47
2022-10-19T06:44:34.579Z,9.41
2022-10-19T06:47:01.175Z,9.42
2022-10-19T06:49:28.056Z,9.45
2022-10-19T06:51:54.691Z,9.44
2022-10-19T06:54:21.566Z,9.51
2022-10-19T06:59:15.213Z,10.03
2022-10-19T07:01:41.858Z,9.89
2022-10-19T07:04:08.726Z,10.03
2022-10-19T07:06:35.620Z,10.30
2022-10-19T07:09:27.481Z,10.15
2022-10-19T07:11:54.183Z,10.07
2022-10-19T07:14:21.086Z,9.96
2022-10-19T07:16:49.722Z,9.91
2022-10-19T07:19:16.618Z,9.92
2022-10-19T07:21:45.062Z,10.01
2022-10-19T07:24:11.871Z,10.13
2022-10-19T07:26:38.969Z,10.17
2022-10-19T07:29:05.716Z,10.09
2022-10-19T07:31:32.597Z,10.01
2022-10-19T07:34:01.617Z,10.02
2022-10-19T07:36:30.325Z,10.05
2022-10-19T07:38:57.172Z,10.04
2022-10-19T07:41:26.192Z,10.11
2022-10-19T07:44:03.015Z,10.24
2022-10-19T07:46:33.702Z,10.36
2022-10-19T07:49:00.922Z,10.43
2022-10-19T07:53:54.761Z,10.63
2022-10-19T07:56:26.632Z,10.57
2022-10-19T07:58:55.327Z,10.71
2022-10-19T08:01:28.273Z,10.81
2022-10-19T08:04:55.504Z,10.88
2022-10-19T08:06:45.610Z,10.96
2022-10-19T08:09:27.765Z,11.27
2022-10-19T08:11:59.307Z,11.24
2022-10-19T08:18:18.490Z,11.71
2022-10-19T08:20:45.296Z,11.74
2022-10-19T08:23:11.930Z,11.96
2022-10-19T08:25:38.557Z,11.94
2022-10-19T08:28:05.317Z,12.14
2022-10-19T08:30:34.968Z,12.26
2022-10-19T08:33:03.085Z,12.39
2022-10-19T08:35:30.674Z,12.46
2022-10-19T08:37:58.721Z,12.61
2022-10-19T08:40:28.725Z,12.42
2022-10-19T08:43:34.979Z,12.59
2022-10-19T08:46:12.728Z,12.47
2022-10-19T08:48:42.978Z,12.47
2022-10-19T08:51:12.395Z,12.65
2022-10-19T08:54:00.086Z,12.43
2022-10-19T08:56:50.426Z,12.59
2022-10-19T08:59:37.117Z,12.38
2022-10-19T09:02:28.269Z,12.54
2022-10-19T09:05:00.426Z,12.64
2022-10-19T09:07:29.493Z,12.52
2022-10-19T09:10:00.156Z,12.73
2022-10-19T09:12:59.894Z,12.79
2022-10-19T09:15:42.425Z,12.89
2022-10-19T09:18:22.777Z,13.04
2022-10-19T09:20:51.737Z,12.93
2022-10-19T09:23:34.846Z,13.15
2022-10-19T09:26:01.696Z,12.98
2022-10-19T09:28:38.997Z,12.96
2022-10-19T09:31:13.371Z,12.88
2022-10-19T09:33:40.922Z,13.04
2022-10-19T09:36:18.219Z,13.10
2022-10-19T09:38:50.193Z,13.08
2022-10-19T09:41:20.657Z,12.76
2022-10-19T09:43:53.226Z,12.68
2022-10-19T09:46:52.237Z,12.82
2022-10-19T09:49:20.189Z,12.87
2022-10-19T09:51:52.533Z,12.86
2022-10-19T09:54:34.952Z,13.09
2022-10-19T09:57:02.148Z,13.11
2022-10-19T09:59:34.571Z,12.94
2022-10-19T10:02:13.504Z,13.05
2022-10-19T10:04:40.166Z,13.09
2022-10-19T10:07:06.941Z,13.06
2022-10-19T10:09:38.365Z,12.97
2022-10-19T10:12:08.449Z,13.01
2022-10-19T10:14:40.040Z,12.98
2022-10-19T10:20:29.387Z,13.17
2022-10-19T10:23:04.206Z,13.59
2022-10-19T10:25:33.433Z,13.55
2022-10-19T10:28:17.261Z,13.65
2022-10-19T10:30:44.984Z,13.76
2022-10-19T10:33:27.223Z,13.94
2022-10-19T10:36:10.313Z,14.18
2022-10-19T10:39:03.937Z,14.25
2022-10-19T10:41:31.819Z,14.10
2022-10-19T10:44:06.623Z,14.14
2022-10-19T10:46:36.277Z,14.28
2022-10-19T10:49:07.591Z,14.14
2022-10-19T10:51:49.233Z,14.13
2022-10-19T10:54:24.058Z,14.05
2022-10-19T10:57:04.276Z,13.99
2022-10-19T10:59:55.731Z,14.09
2022-10-19T11:02:49.235Z,13.98
2022-10-19T11:05:23.103Z,13.93
2022-10-19T11:08:11.939Z,13.93
2022-10-19T11:11:06.928Z,13.90
2022-10-19T11:13:48.913Z,14.02
2022-10-19T11:16:33.924Z,14.16
2022-10-19T11:19:19.005Z,14.22
2022-10-19T11:22:15.345Z,14.18
2022-10-19T11:25:16.929Z,14.24
2022-10-19T11:27:50.968Z,14.26
2022-10-19T11:30:23.342Z,14.31
2022-10-19T11:32:49.951Z,14.56
2022-10-19T11:35:20.980Z,14.43
2022-10-19T11:38:17.558Z,14.75
2022-10-19T11:41:19.769Z,14.65
2022-10-19T11:44:05.059Z,14.93
2022-10-19T11:46:36.373Z,14.93
2022-10-19T11:49:22.146Z,14.84
2022-10-19T11:51:57.731Z,15.00
2022-10-19T11:54:46.171Z,14.98
2022-10-19T11:57:15.417Z,14.81
2022-10-19T12:00:13.631Z,14.85
2022-10-19T12:03:23.684Z,15.01
2022-10-19T12:06:13.330Z,14.70
2022-10-19T12:08:46.009Z,14.70
2022-10-19T12:11:27.961Z,15.03
2022-10-19T12:14:02.652Z,15.16
2022-10-19T12:16:52.769Z,14.98
2022-10-19T12:19:29.262Z,14.86
2022-10-19T12:22:00.362Z,14.94
2022-10-19T12:24:28.679Z,15.05
2022-10-19T12:26:55.620Z,14.93
2022-10-19T12:29:28.577Z,15.06
2022-10-19T12:31:59.768Z,15.20
2022-10-19T12:34:45.372Z,15.19
2022-10-19T12:37:30.625Z,15.13
2022-10-19T12:40:03.510Z,14.96
2022-10-19T12:42:45.286Z,15.16
2022-10-19T12:45:31.058Z,15.00
2022-10-19T12:48:13.164Z,14.86
2022-10-19T12:50:48.990Z,15.10
2022-10-19T12:53:36.334Z,15.28
2022-10-19T12:56:07.086Z,15.28
2022-10-19T12:58:47.904Z,15.12
2022-10-19T13:01:27.515Z,15.18
2022-10-19T13:04:09.234Z,15.22
2022-10-19T13:06:38.873Z,15.30
2022-10-19T13:09:08.373Z,15.07
2022-10-19T13:11:36.375Z,15.08
2022-10-19T13:14:06.553Z,15.10
2022-10-19T13:16:40.968Z,15.06
2022-10-19T13:19:34.269Z,15.12
2022-10-19T13:22:28.032Z,14.85
2022-10-19T13:25:16.188Z,15.03
2022-10-19T13:27:53.445Z,15.08
2022-10-19T13:30:35.471Z,15.26
2022-10-19T13:33:33.432Z,15.09
2022-10-19T13:36:00.235Z,15.10
2022-10-19T13:38:30.805Z,15.16
2022-10-19T13:41:02.617Z,15.35
2022-10-19T13:43:36.807Z,15.29
2022-10-19T13:46:20.335Z,15.07
2022-10-19T13:49:13.903Z,15.07
2022-10-19T13:52:06.887Z,15.40
2022-10-19T13:55:04.674Z,15.54
2022-10-19T13:58:28.237Z,15.50
2022-10-19T14:04:41.926Z,15.41
2022-10-19T14:07:23.135Z,15.51
2022-10-19T14:09:58.831Z,15.43
2022-10-19T14:12:28.361Z,15.58
2022-10-19T14:14:56.153Z,15.54
2022-10-19T14:17:25.740Z,15.55
2022-10-19T14:19:55.370Z,15.56
2022-10-19T14:22:25.003Z,15.38
2022-10-19T14:24:52.546Z,15.25
2022-10-19T14:27:28.464Z,15.29
2022-10-19T14:29:55.473Z,15.26
2022-10-19T14:32:26.349Z,15.27
2022-10-19T14:34:57.692Z,15.37
2022-10-19T14:37:29.458Z,15.36
2022-10-19T14:40:26.643Z,15.19
2022-10-19T14:42:57.027Z,15.12
2022-10-19T14:45:27.739Z,15.21
2022-10-19T14:48:06.162Z,15.05
2022-10-19T14:50:51.998Z,15.01
2022-10-19T14:53:39.878Z,15.08
2022-10-19T14:56:35.006Z,15.07
2022-10-19T14:59:36.607Z,14.99
2022-10-19T15:02:48.517Z,15.00
2022-10-19T15:05:26.183Z,15.13
2022-10-19T15:10:48.884Z,15.27
2022-10-19T15:13:22.148Z,15.23
2022-10-19T15:15:53.400Z,15.05
2022-10-19T15:18:49.365Z,15.08
2022-10-19T15:21:52.499Z,15.24
2022-10-19T15:24:30.724Z,15.19
2022-10-19T15:27:08.854Z,15.08
2022-10-19T15:29:36.967Z,14.96
2022-10-19T15:32:25.637Z,15.05
2022-10-19T15:34:55.603Z,15.01
2022-10-19T15:37:24.044Z,14.94
2022-10-19T15:39:52.095Z,15.20
2022-10-19T15:42:48.618Z,15.31
2022-10-19T15:45:39.432Z,15.36
2022-10-19T15:48:40.560Z,15.34
2022-10-19T15:51:29.279Z,15.10
2022-10-19T15:54:18.943Z,15.08
2022-10-19T15:56:51.176Z,15.01
2022-10-19T15:59:24.245Z,15.03
2022-10-19T16:01:56.168Z,14.90
2022-10-19T16:04:27.275Z,14.95
2022-10-19T16:06:55.930Z,14.71
2022-10-19T16:09:22.588Z,14.83
2022-10-19T16:11:50.398Z,14.76
2022-10-19T16:14:21.091Z,14.72
2022-10-19T16:16:51.140Z,14.60
2022-10-19T16:19:17.840Z,14.38
2022-10-19T16:21:50.539Z,14.39
2022-10-19T16:24:20.669Z,14.28
2022-10-19T16:26:47.293Z,14.23
2022-10-19T16:29:25.469Z,14.21
2022-10-19T16:31:55.626Z,14.23
2022-10-19T16:34:22.976Z,14.13
2022-10-19T16:36:52.675Z,14.10
2022-10-19T16:39:19.429Z,14.07
2022-10-19T16:41:46.122Z,13.92
2022-10-19T16:44:13.292Z,13.97
2022-10-19T16:46:43.506Z,14.00
2022-10-19T16:49:10.339Z,14.00
2022-10-19T16:51:40.556Z,13.92
2022-10-19T16:54:10.552Z,13.92
2022-10-19T16:56:51.421Z,13.83
2022-10-19T16:59:19.812Z,13.84
2022-10-19T17:01:48.425Z,13.83
2022-10-19T17:04:21.939Z,13.85
2022-10-19T17:06:51.452Z,13.72
2022-10-19T17:12:06.635Z,13.66
2022-10-19T17:14:38.458Z,13.62
2022-10-19T17:17:11.789Z,13.49
2022-10-19T17:19:38.727Z,13.51
2022-10-19T17:22:09.541Z,13.49
2022-10-19T17:24:48.358Z,13.63
2022-10-19T17:27:22.185Z,13.57
2022-10-19T17:29:52.224Z,13.53
2022-10-19T17:32:19.191Z,13.56
2022-10-19T17:34:57.107Z,13.52
2022-10-19T17:37:48.595Z,13.47
2022-10-19T17:40:15.646Z,13.54
2022-10-19T17:42:42.559Z,13.43
2022-10-19T17:45:10.109Z,13.31
2022-10-19T17:47:38.021Z,13.34
2022-10-19T17:50:09.316Z,13.22
2022-10-19T17:53:03.956Z,13.35
2022-10-19T17:55:34.760Z,13.21
2022-10-19T17:58:04.781Z,13.06
2022-10-19T18:00:38.897Z,13.05
2022-10-19T18:03:07.701Z,13.08
2022-10-19T18:06:00.634Z,12.78
2022-10-19T18:08:48.789Z,12.87
2022-10-19T18:11:43.362Z,12.89
2022-10-19T18:14:26.850Z,12.95
2022-10-19T18:17:03.440Z,13.08
2022-10-19T18:19:49.018Z,13.00
2022-10-19T18:22:24.504Z,12.94
2022-10-19T18:24:55.880Z,13.05
2022-10-19T18:27:26.108Z,12.93
2022-10-19T18:30:31.725Z,12.98
2022-10-19T18:33:24.033Z,12.82
2022-10-19T18:36:03.871Z,12.86
2022-10-19T18:42:25.475Z,12.65
2022-10-19T18:45:25.292Z,12.76
2022-10-19T18:48:41.905Z,12.64
2022-10-19T18:51:10.888Z,12.79
2022-10-19T19:09:10.462Z,12.57
2022-10-19T19:12:08.083Z,12.46
2022-10-19T19:14:50.461Z,12.43
2022-10-19T19:18:23.668Z,12.47
2022-10-19T19:21:00.538Z,12.57
2022-10-19T19:26:26.333Z,12.46
2022-10-19T19:34:37.499Z,12.22
2022-10-19T19:38:47.915Z,12.17
2022-10-19T19:45:52.888Z,12.33
2022-10-19T19:50:35.976Z,12.27
2022-10-19T19:52:09.996Z,12.52
2022-10-19T19:54:52.429Z,12.42
2022-10-19T19:57:41.430Z,12.31
2022-10-19T20:00:10.169Z,12.42
2022-10-19T20:03:56.320Z,12.51
2022-10-19T20:06:41.315Z,12.37
2022-10-19T20:09:08.898Z,12.32
2022-10-19T20:11:42.080Z,12.39
2022-10-19T20:14:11.179Z,12.30
2022-10-19T20:16:38.316Z,12.14
2022-10-19T20:19:17.788Z,12.31
2022-10-19T20:22:12.067Z,12.04
2022-10-19T20:28:32.472Z,11.98
2022-10-19T20:31:12.106Z,12.05
2022-10-19T20:33:52.539Z,12.12
2022-10-19T20:36:35.507Z,12.21
2022-10-19T20:39:31.048Z,12.40
2022-10-19T20:42:08.381Z,12.05
2022-10-19T20:44:40.800Z,12.08
2022-10-19T20:47:07.724Z,12.21
2022-10-19T20:49:41.112Z,12.16
2022-10-19T20:52:20.055Z,12.00
2022-10-19T20:54:51.129Z,11.81
2022-10-19T20:57:23.823Z,11.83
2022-10-19T20:59:50.845Z,11.91
2022-10-19T21:02:18.018Z,11.87
2022-10-19T21:04:44.953Z,11.50
2022-10-19T21:07:11.666Z,11.59
2022-10-19T21:09:38.304Z,11.43
2022-10-19T21:12:05.001Z,11.13
2022-10-19T21:14:31.723Z,11.36
2022-10-19T21:16:59.567Z,11.21
2022-10-19T21:19:28.748Z,11.15
2022-10-19T21:22:02.130Z,11.12
2022-10-19T21:24:32.476Z,10.90
2022-10-19T21:27:05.035Z,10.97
2022-10-19T21:29:31.685Z,10.85
2022-10-19T21:31:58.319Z,10.82
2022-10-19T21:34:27.484Z,10.98
2022-10-19T21:36:54.519Z,10.96
2022-10-19T21:39:21.734Z,10.95
2022-10-19T21:41:48.796Z,10.94
2022-10-19T21:44:16.870Z,10.89
2022-10-19T21:46:43.920Z,10.98
2022-10-19T21:49:14.778Z,10.87
2022-10-19T21:51:47.542Z,10.79
2022-10-19T21:54:17.062Z,10.75
2022-10-19T21:56:44.003Z,10.75
2022-10-19T21:59:11.901Z,10.62
2022-10-19T22:01:41.325Z,10.68
2022-10-19T22:04:12.108Z,10.71
2022-10-19T22:06:39.943Z,10.70
2022-10-19T22:09:07.977Z,10.70
2022-10-19T22:11:34.808Z,10.73
2022-10-19T22:14:03.225Z,10.81
2022-10-19T22:16:30.735Z,10.80
2022-10-19T22:18:57.666Z,10.73
2022-10-19T22:21:26.982Z,10.68
2022-10-19T22:23:55.761Z,10.75
2022-10-19T22:26:28.819Z,10.57
2022-10-19T22:28:57.012Z,10.51
2022-10-19T22:31:24.885Z,10.28
2022-10-19T22:33:51.594Z,10.23
2022-10-19T22:36:18.454Z,10.18
2022-10-19T22:38:45.145Z,10.18
2022-10-19T22:41:11.765Z,10.22
2022-10-19T22:43:38.334Z,10.18
2022-10-19T22:46:04.908Z,10.16
2022-10-19T22:48:31.526Z,10.08
2022-10-19T22:50:58.097Z,9.98
2022-10-19T22:53:24.824Z,10.06
2022-10-19T22:55:51.522Z,10.20
2022-10-19T22:58:18.696Z,10.04
2022-10-19T23:00:45.355Z,10.16
2022-10-19T23:03:12.144Z,9.99
2022-10-19T23:05:38.919Z,9.96
2022-10-19T23:08:05.679Z,9.85
2022-10-19T23:10:32.698Z,9.80
2022-10-19T23:12:59.350Z,9.70
2022-10-19T23:15:25.915Z,9.55
2022-10-19T23:17:52.571Z,9.69
2022-10-19T23:20:19.183Z,9.76
2022-10-19T23:22:45.860Z,9.73
2022-10-19T23:25:12.412Z,9.92
2022-10-19T23:27:39.304Z,9.76
2022-10-19T23:30:06.551Z,9.60
2022-10-19T23:32:33.153Z,9.54
2022-10-19T23:34:59.732Z,9.56
2022-10-19T23:37:26.408Z,9.56
2022-10-19T23:39:52.988Z,9.65
2022-10-19T23:42:19.607Z,9.51
2022-10-19T23:44:46.196Z,9.50
2022-10-19T23:47:12.772Z,9.54
2022-10-19T23:49:39.343Z,9.55
2022-10-19T23:52:06.018Z,9.58
2022-10-19T23:54:32.608Z,9.59
2022-10-19T23:56:59.324Z,9.62
2022-10-19T23:59:25.904Z,9.61
